Summitville, Colorado
Current Conditions -  °F | °C
As of 4:50 PM on Sunday 23 Nov 2014 (Local Time) from KRCV Reporting Station
Scattered Clouds Scattered Clouds  
Wind Chill: 12°   Ceiling: Unl
Heat Index: 25°   Visibility: 10mi
Dew Point: 10°   Wind: 16mph
Humidity: 53%   Direction: 320°NW
Pressure: 29.91"   Gusts: 23mph
Location:  37.6359°N, 106.449°W
Report Text: KRCV 232350Z AUTO 32014G20KT 10SM SCT016 SCT026 SCT033 M04/M12 A2991 RMK AO2 T10411124 10030 21041
Loading
Personal Weather Stations






























Interactive Weather Map New forecast layout! Learn more

10-Day Weather Forecast

Advertisements
Track Severe Weather on mobile